sensor_id;sensor_type;location;lat;lon;timestamp;P1;durP1;ratioP1;P2;durP2;ratioP2
17854;SDS011;9053;53.358;6.382;2022-08-25T00:00:49;7.43;;;6.72;;
17854;SDS011;9053;53.358;6.382;2022-08-25T00:03:19;8.48;;;7.68;;
17854;SDS011;9053;53.358;6.382;2022-08-25T00:05:49;9.32;;;7.72;;
17854;SDS011;9053;53.358;6.382;2022-08-25T00:08:21;8.07;;;6.80;;
17854;SDS011;9053;53.358;6.382;2022-08-25T00:10:51;8.35;;;7.05;;
17854;SDS011;9053;53.358;6.382;2022-08-25T00:13:29;7.75;;;6.97;;
17854;SDS011;9053;53.358;6.382;2022-08-25T00:15:58;7.65;;;6.93;;
17854;SDS011;9053;53.358;6.382;2022-08-25T00:18:29;8.10;;;7.30;;
17854;SDS011;9053;53.358;6.382;2022-08-25T00:20:58;7.60;;;6.90;;
17854;SDS011;9053;53.358;6.382;2022-08-25T00:23:31;9.40;;;8.50;;
17854;SDS011;9053;53.358;6.382;2022-08-25T00:26:01;7.70;;;6.95;;
17854;SDS011;9053;53.358;6.382;2022-08-25T00:28:31;7.82;;;7.13;;
17854;SDS011;9053;53.358;6.382;2022-08-25T00:31:02;7.30;;;6.70;;
17854;SDS011;9053;53.358;6.382;2022-08-25T00:33:32;8.25;;;7.30;;
17854;SDS011;9053;53.358;6.382;2022-08-25T00:36:02;9.75;;;7.38;;
17854;SDS011;9053;53.358;6.382;2022-08-25T00:38:35;8.43;;;7.55;;
17854;SDS011;9053;53.358;6.382;2022-08-25T00:41:05;9.20;;;7.00;;
17854;SDS011;9053;53.358;6.382;2022-08-25T00:43:42;7.50;;;6.88;;
17854;SDS011;9053;53.358;6.382;2022-08-25T00:46:15;11.25;;;7.18;;
17854;SDS011;9053;53.358;6.382;2022-08-25T00:48:48;7.30;;;6.60;;
17854;SDS011;9053;53.358;6.382;2022-08-25T00:51:22;7.05;;;6.35;;
17854;SDS011;9053;53.358;6.382;2022-08-25T00:54:01;6.80;;;6.10;;
17854;SDS011;9053;53.358;6.382;2022-08-25T00:56:32;6.82;;;6.22;;
17854;SDS011;9053;53.358;6.382;2022-08-25T00:59:03;8.48;;;7.63;;
17854;SDS011;9053;53.358;6.382;2022-08-25T01:01:33;7.43;;;6.75;;
17854;SDS011;9053;53.358;6.382;2022-08-25T01:04:04;7.90;;;7.10;;
17854;SDS011;9053;53.358;6.382;2022-08-25T01:06:37;8.90;;;6.50;;
17854;SDS011;9053;53.358;6.382;2022-08-25T01:09:12;6.85;;;6.15;;
17854;SDS011;9053;53.358;6.382;2022-08-25T01:11:42;8.75;;;7.40;;
17854;SDS011;9053;53.358;6.382;2022-08-25T01:14:14;7.50;;;6.57;;
17854;SDS011;9053;53.358;6.382;2022-08-25T01:16:46;7.40;;;6.65;;
17854;SDS011;9053;53.358;6.382;2022-08-25T01:19:19;8.13;;;7.32;;
17854;SDS011;9053;53.358;6.382;2022-08-25T01:21:52;7.60;;;6.90;;
17854;SDS011;9053;53.358;6.382;2022-08-25T01:24:24;6.90;;;6.30;;
17854;SDS011;9053;53.358;6.382;2022-08-25T01:26:58;7.85;;;7.00;;
17854;SDS011;9053;53.358;6.382;2022-08-25T01:29:29;8.57;;;7.00;;
17854;SDS011;9053;53.358;6.382;2022-08-25T01:32:00;7.97;;;7.18;;
17854;SDS011;9053;53.358;6.382;2022-08-25T01:34:33;7.03;;;6.10;;
17854;SDS011;9053;53.358;6.382;2022-08-25T01:37:07;7.25;;;6.53;;
17854;SDS011;9053;53.358;6.382;2022-08-25T01:39:40;6.45;;;5.82;;
17854;SDS011;9053;53.358;6.382;2022-08-25T01:42:18;6.80;;;6.20;;
17854;SDS011;9053;53.358;6.382;2022-08-25T01:44:56;7.18;;;5.90;;
17854;SDS011;9053;53.358;6.382;2022-08-25T01:47:26;5.93;;;5.32;;
17854;SDS011;9053;53.358;6.382;2022-08-25T01:49:55;5.90;;;5.35;;
17854;SDS011;9053;53.358;6.382;2022-08-25T01:52:31;6.35;;;5.72;;
17854;SDS011;9053;53.358;6.382;2022-08-25T01:55:05;6.28;;;5.65;;
17854;SDS011;9053;53.358;6.382;2022-08-25T01:57:36;5.88;;;5.35;;
17854;SDS011;9053;53.358;6.382;2022-08-25T02:00:06;6.78;;;6.18;;
17854;SDS011;9053;53.358;6.382;2022-08-25T02:02:39;6.85;;;5.93;;
17854;SDS011;9053;53.358;6.382;2022-08-25T02:05:11;6.10;;;5.45;;
17854;SDS011;9053;53.358;6.382;2022-08-25T02:07:51;6.43;;;5.32;;
17854;SDS011;9053;53.358;6.382;2022-08-25T02:10:21;5.65;;;5.15;;
17854;SDS011;9053;53.358;6.382;2022-08-25T02:12:50;5.75;;;5.25;;
17854;SDS011;9053;53.358;6.382;2022-08-25T02:15:21;6.85;;;6.07;;
17854;SDS011;9053;53.358;6.382;2022-08-25T02:17:51;8.13;;;5.28;;
17854;SDS011;9053;53.358;6.382;2022-08-25T02:20:22;5.53;;;4.95;;
17854;SDS011;9053;53.358;6.382;2022-08-25T02:22:55;5.20;;;4.80;;
17854;SDS011;9053;53.358;6.382;2022-08-25T02:25:25;6.22;;;4.60;;
17854;SDS011;9053;53.358;6.382;2022-08-25T02:27:54;5.35;;;4.90;;
17854;SDS011;9053;53.358;6.382;2022-08-25T02:30:24;5.55;;;5.05;;
17854;SDS011;9053;53.358;6.382;2022-08-25T02:32:55;7.35;;;6.25;;
17854;SDS011;9053;53.358;6.382;2022-08-25T02:35:25;5.45;;;4.95;;
17854;SDS011;9053;53.358;6.382;2022-08-25T02:37:57;5.93;;;5.25;;
17854;SDS011;9053;53.358;6.382;2022-08-25T02:40:27;7.05;;;5.63;;
17854;SDS011;9053;53.358;6.382;2022-08-25T02:42:57;7.47;;;5.90;;
17854;SDS011;9053;53.358;6.382;2022-08-25T02:45:27;6.82;;;6.10;;
17854;SDS011;9053;53.358;6.382;2022-08-25T02:47:57;6.80;;;5.75;;
17854;SDS011;9053;53.358;6.382;2022-08-25T02:50:28;9.05;;;6.53;;
17854;SDS011;9053;53.358;6.382;2022-08-25T02:53:00;6.32;;;5.72;;
17854;SDS011;9053;53.358;6.382;2022-08-25T02:55:30;5.97;;;5.38;;
17854;SDS011;9053;53.358;6.382;2022-08-25T02:58:00;5.90;;;5.22;;
17854;SDS011;9053;53.358;6.382;2022-08-25T03:00:30;7.28;;;5.93;;
17854;SDS011;9053;53.358;6.382;2022-08-25T03:03:00;8.05;;;5.97;;
17854;SDS011;9053;53.358;6.382;2022-08-25T03:05:30;6.93;;;5.97;;
17854;SDS011;9053;53.358;6.382;2022-08-25T03:08:03;5.65;;;5.13;;
17854;SDS011;9053;53.358;6.382;2022-08-25T03:10:33;7.35;;;5.10;;
17854;SDS011;9053;53.358;6.382;2022-08-25T03:13:03;6.82;;;6.13;;
17854;SDS011;9053;53.358;6.382;2022-08-25T03:15:34;6.10;;;5.50;;
17854;SDS011;9053;53.358;6.382;2022-08-25T03:18:08;5.85;;;5.35;;
17854;SDS011;9053;53.358;6.382;2022-08-25T03:20:40;6.60;;;5.40;;
17854;SDS011;9053;53.358;6.382;2022-08-25T03:23:14;4.97;;;4.47;;
17854;SDS011;9053;53.358;6.382;2022-08-25T03:25:44;5.00;;;4.45;;
17854;SDS011;9053;53.358;6.382;2022-08-25T03:28:27;5.97;;;5.40;;
17854;SDS011;9053;53.358;6.382;2022-08-25T03:30:58;8.35;;;6.18;;
17854;SDS011;9053;53.358;6.382;2022-08-25T03:33:30;8.55;;;5.72;;
17854;SDS011;9053;53.358;6.382;2022-08-25T03:36:00;5.68;;;5.07;;
17854;SDS011;9053;53.358;6.382;2022-08-25T03:38:33;8.25;;;6.30;;
17854;SDS011;9053;53.358;6.382;2022-08-25T03:41:10;6.30;;;5.70;;
17854;SDS011;9053;53.358;6.382;2022-08-25T03:43:42;6.80;;;5.22;;
17854;SDS011;9053;53.358;6.382;2022-08-25T03:46:17;6.22;;;5.50;;
17854;SDS011;9053;53.358;6.382;2022-08-25T03:48:48;8.35;;;6.43;;
17854;SDS011;9053;53.358;6.382;2022-08-25T03:51:20;5.93;;;5.05;;
17854;SDS011;9053;53.358;6.382;2022-08-25T03:53:53;8.90;;;5.90;;
17854;SDS011;9053;53.358;6.382;2022-08-25T03:56:24;6.60;;;4.90;;
17854;SDS011;9053;53.358;6.382;2022-08-25T03:58:54;13.02;;;5.75;;
17854;SDS011;9053;53.358;6.382;2022-08-25T04:01:24;6.70;;;5.82;;
17854;SDS011;9053;53.358;6.382;2022-08-25T04:03:55;6.45;;;5.38;;
17854;SDS011;9053;53.358;6.382;2022-08-25T04:06:24;8.48;;;6.60;;
17854;SDS011;9053;53.358;6.382;2022-08-25T04:08:57;7.13;;;5.90;;
17854;SDS011;9053;53.358;6.382;2022-08-25T04:11:27;6.50;;;5.80;;
17854;SDS011;9053;53.358;6.382;2022-08-25T04:13:57;7.35;;;5.80;;
17854;SDS011;9053;53.358;6.382;2022-08-25T04:16:28;7.32;;;5.55;;
17854;SDS011;9053;53.358;6.382;2022-08-25T04:19:01;6.45;;;5.53;;
17854;SDS011;9053;53.358;6.382;2022-08-25T04:21:34;5.90;;;5.32;;
17854;SDS011;9053;53.358;6.382;2022-08-25T04:24:08;6.38;;;5.78;;
17854;SDS011;9053;53.358;6.382;2022-08-25T04:26:40;8.38;;;5.50;;
17854;SDS011;9053;53.358;6.382;2022-08-25T04:29:12;6.00;;;5.35;;
17854;SDS011;9053;53.358;6.382;2022-08-25T04:31:43;5.80;;;5.20;;
17854;SDS011;9053;53.358;6.382;2022-08-25T04:34:15;6.22;;;5.43;;
17854;SDS011;9053;53.358;6.382;2022-08-25T04:36:56;7.13;;;6.43;;
17854;SDS011;9053;53.358;6.382;2022-08-25T04:39:30;6.28;;;5.63;;
17854;SDS011;9053;53.358;6.382;2022-08-25T04:42:01;6.68;;;5.65;;
17854;SDS011;9053;53.358;6.382;2022-08-25T04:44:31;8.85;;;6.50;;
17854;SDS011;9053;53.358;6.382;2022-08-25T04:47:01;6.93;;;5.55;;
17854;SDS011;9053;53.358;6.382;2022-08-25T04:49:30;6.40;;;5.68;;
17854;SDS011;9053;53.358;6.382;2022-08-25T04:52:00;6.97;;;5.70;;
17854;SDS011;9053;53.358;6.382;2022-08-25T04:54:41;7.75;;;6.20;;
17854;SDS011;9053;53.358;6.382;2022-08-25T04:57:11;7.53;;;6.75;;
17854;SDS011;9053;53.358;6.382;2022-08-25T04:59:41;9.48;;;6.80;;
17854;SDS011;9053;53.358;6.382;2022-08-25T05:02:10;8.18;;;6.20;;
17854;SDS011;9053;53.358;6.382;2022-08-25T05:04:40;7.85;;;6.03;;
17854;SDS011;9053;53.358;6.382;2022-08-25T05:07:10;6.88;;;5.75;;
17854;SDS011;9053;53.358;6.382;2022-08-25T05:09:43;9.82;;;5.88;;
17854;SDS011;9053;53.358;6.382;2022-08-25T05:12:12;7.05;;;6.35;;
17854;SDS011;9053;53.358;6.382;2022-08-25T05:14:42;5.78;;;5.18;;
17854;SDS011;9053;53.358;6.382;2022-08-25T05:17:12;7.18;;;6.28;;
17854;SDS011;9053;53.358;6.382;2022-08-25T05:19:42;7.43;;;6.40;;
17854;SDS011;9053;53.358;6.382;2022-08-25T05:22:12;8.82;;;6.13;;
17854;SDS011;9053;53.358;6.382;2022-08-25T05:24:45;7.75;;;5.50;;
17854;SDS011;9053;53.358;6.382;2022-08-25T05:27:14;8.23;;;6.35;;
17854;SDS011;9053;53.358;6.382;2022-08-25T05:29:44;6.88;;;5.88;;
17854;SDS011;9053;53.358;6.382;2022-08-25T05:32:14;7.07;;;5.90;;
17854;SDS011;9053;53.358;6.382;2022-08-25T05:34:44;7.00;;;6.25;;
17854;SDS011;9053;53.358;6.382;2022-08-25T05:37:14;7.68;;;6.88;;
17854;SDS011;9053;53.358;6.382;2022-08-25T05:39:46;7.47;;;6.07;;
17854;SDS011;9053;53.358;6.382;2022-08-25T05:42:16;11.90;;;6.60;;
17854;SDS011;9053;53.358;6.382;2022-08-25T05:44:47;8.60;;;6.53;;
17854;SDS011;9053;53.358;6.382;2022-08-25T05:47:17;9.35;;;6.55;;
17854;SDS011;9053;53.358;6.382;2022-08-25T05:49:47;7.55;;;6.20;;
17854;SDS011;9053;53.358;6.382;2022-08-25T05:52:17;8.80;;;5.78;;
17854;SDS011;9053;53.358;6.382;2022-08-25T05:54:49;7.45;;;6.65;;
17854;SDS011;9053;53.358;6.382;2022-08-25T05:57:19;7.53;;;6.47;;
17854;SDS011;9053;53.358;6.382;2022-08-25T05:59:50;7.53;;;6.20;;
17854;SDS011;9053;53.358;6.382;2022-08-25T06:02:20;9.45;;;6.65;;
17854;SDS011;9053;53.358;6.382;2022-08-25T06:05:02;6.32;;;5.68;;
17854;SDS011;9053;53.358;6.382;2022-08-25T06:07:32;8.55;;;6.07;;
17854;SDS011;9053;53.358;6.382;2022-08-25T06:10:06;8.65;;;6.20;;
17854;SDS011;9053;53.358;6.382;2022-08-25T06:12:39;8.60;;;7.38;;
17854;SDS011;9053;53.358;6.382;2022-08-25T06:15:14;9.38;;;8.48;;
17854;SDS011;9053;53.358;6.382;2022-08-25T06:17:46;6.30;;;5.70;;
17854;SDS011;9053;53.358;6.382;2022-08-25T06:20:21;9.23;;;6.47;;
17854;SDS011;9053;53.358;6.382;2022-08-25T06:22:54;6.70;;;5.80;;
17854;SDS011;9053;53.358;6.382;2022-08-25T06:25:28;8.75;;;6.13;;
17854;SDS011;9053;53.358;6.382;2022-08-25T06:27:59;5.80;;;4.95;;
17854;SDS011;9053;53.358;6.382;2022-08-25T06:30:28;7.05;;;5.30;;
17854;SDS011;9053;53.358;6.382;2022-08-25T06:32:58;8.20;;;6.47;;
17854;SDS011;9053;53.358;6.382;2022-08-25T06:35:28;9.75;;;6.70;;
17854;SDS011;9053;53.358;6.382;2022-08-25T06:38:00;6.50;;;5.80;;
17854;SDS011;9053;53.358;6.382;2022-08-25T06:40:33;8.45;;;6.00;;
17854;SDS011;9053;53.358;6.382;2022-08-25T06:43:03;11.32;;;6.82;;
17854;SDS011;9053;53.358;6.382;2022-08-25T06:45:34;7.95;;;6.35;;
17854;SDS011;9053;53.358;6.382;2022-08-25T06:48:04;7.25;;;6.53;;
17854;SDS011;9053;53.358;6.382;2022-08-25T06:50:34;8.95;;;6.60;;
17854;SDS011;9053;53.358;6.382;2022-08-25T06:53:05;10.98;;;7.75;;
17854;SDS011;9053;53.358;6.382;2022-08-25T06:55:38;9.90;;;6.47;;
17854;SDS011;9053;53.358;6.382;2022-08-25T06:58:08;8.80;;;7.43;;
17854;SDS011;9053;53.358;6.382;2022-08-25T07:00:37;8.15;;;7.15;;
17854;SDS011;9053;53.358;6.382;2022-08-25T07:03:08;8.27;;;6.75;;
17854;SDS011;9053;53.358;6.382;2022-08-25T07:05:38;9.00;;;6.18;;
17854;SDS011;9053;53.358;6.382;2022-08-25T07:08:09;7.10;;;5.88;;
17854;SDS011;9053;53.358;6.382;2022-08-25T07:10:41;7.88;;;6.40;;
17854;SDS011;9053;53.358;6.382;2022-08-25T07:13:13;7.18;;;5.55;;
17854;SDS011;9053;53.358;6.382;2022-08-25T07:15:43;7.70;;;6.13;;
17854;SDS011;9053;53.358;6.382;2022-08-25T07:18:13;6.40;;;5.60;;
17854;SDS011;9053;53.358;6.382;2022-08-25T07:20:43;8.73;;;5.88;;
17854;SDS011;9053;53.358;6.382;2022-08-25T07:23:13;6.72;;;5.30;;
17854;SDS011;9053;53.358;6.382;2022-08-25T07:25:46;7.45;;;6.20;;
17854;SDS011;9053;53.358;6.382;2022-08-25T07:28:16;7.85;;;5.05;;
17854;SDS011;9053;53.358;6.382;2022-08-25T07:30:46;10.98;;;5.63;;
17854;SDS011;9053;53.358;6.382;2022-08-25T07:33:17;10.20;;;6.25;;
17854;SDS011;9053;53.358;6.382;2022-08-25T07:35:47;7.28;;;5.13;;
17854;SDS011;9053;53.358;6.382;2022-08-25T07:38:15;5.38;;;4.80;;
17854;SDS011;9053;53.358;6.382;2022-08-25T07:40:49;8.18;;;7.38;;
17854;SDS011;9053;53.358;6.382;2022-08-25T07:43:22;7.70;;;5.60;;
17854;SDS011;9053;53.358;6.382;2022-08-25T07:45:52;8.13;;;5.63;;
17854;SDS011;9053;53.358;6.382;2022-08-25T07:48:22;5.80;;;5.07;;
17854;SDS011;9053;53.358;6.382;2022-08-25T07:50:51;6.20;;;5.20;;
17854;SDS011;9053;53.358;6.382;2022-08-25T07:53:21;7.25;;;5.55;;
17854;SDS011;9053;53.358;6.382;2022-08-25T07:55:54;6.97;;;4.70;;
17854;SDS011;9053;53.358;6.382;2022-08-25T07:58:24;6.28;;;5.55;;
17854;SDS011;9053;53.358;6.382;2022-08-25T08:00:56;5.65;;;4.72;;
17854;SDS011;9053;53.358;6.382;2022-08-25T08:03:35;7.50;;;5.28;;
17854;SDS011;9053;53.358;6.382;2022-08-25T08:06:17;6.50;;;5.18;;
17854;SDS011;9053;53.358;6.382;2022-08-25T08:08:49;6.15;;;5.30;;
17854;SDS011;9053;53.358;6.382;2022-08-25T08:11:28;5.03;;;4.40;;
17854;SDS011;9053;53.358;6.382;2022-08-25T08:14:00;7.20;;;4.70;;
17854;SDS011;9053;53.358;6.382;2022-08-25T08:16:30;7.22;;;4.30;;
17854;SDS011;9053;53.358;6.382;2022-08-25T08:19:00;7.07;;;4.95;;
17854;SDS011;9053;53.358;6.382;2022-08-25T08:21:32;6.88;;;5.40;;
17854;SDS011;9053;53.358;6.382;2022-08-25T08:24:04;6.63;;;4.47;;
17854;SDS011;9053;53.358;6.382;2022-08-25T08:26:56;6.50;;;5.25;;
17854;SDS011;9053;53.358;6.382;2022-08-25T08:29:27;5.65;;;4.70;;
17854;SDS011;9053;53.358;6.382;2022-08-25T08:31:58;6.03;;;4.72;;
17854;SDS011;9053;53.358;6.382;2022-08-25T08:34:28;5.20;;;4.70;;
17854;SDS011;9053;53.358;6.382;2022-08-25T08:36:58;6.65;;;4.50;;
17854;SDS011;9053;53.358;6.382;2022-08-25T08:39:28;7.65;;;4.72;;
17854;SDS011;9053;53.358;6.382;2022-08-25T08:42:06;7.55;;;4.88;;
17854;SDS011;9053;53.358;6.382;2022-08-25T08:44:53;6.07;;;3.97;;
17854;SDS011;9053;53.358;6.382;2022-08-25T08:47:42;7.72;;;4.45;;
17854;SDS011;9053;53.358;6.382;2022-08-25T08:50:23;4.80;;;4.18;;
17854;SDS011;9053;53.358;6.382;2022-08-25T08:53:00;4.38;;;3.75;;
17854;SDS011;9053;53.358;6.382;2022-08-25T08:55:36;5.53;;;4.20;;
17854;SDS011;9053;53.358;6.382;2022-08-25T08:58:14;5.60;;;3.90;;
17854;SDS011;9053;53.358;6.382;2022-08-25T09:00:52;7.28;;;4.57;;
17854;SDS011;9053;53.358;6.382;2022-08-25T09:03:29;4.53;;;3.88;;
17854;SDS011;9053;53.358;6.382;2022-08-25T09:06:06;6.60;;;3.80;;
17854;SDS011;9053;53.358;6.382;2022-08-25T09:08:39;8.27;;;4.90;;
17854;SDS011;9053;53.358;6.382;2022-08-25T09:11:12;5.53;;;3.80;;
17854;SDS011;9053;53.358;6.382;2022-08-25T09:14:01;5.22;;;4.65;;
17854;SDS011;9053;53.358;6.382;2022-08-25T09:16:39;6.43;;;4.93;;
17854;SDS011;9053;53.358;6.382;2022-08-25T09:19:28;5.63;;;5.07;;
17854;SDS011;9053;53.358;6.382;2022-08-25T09:22:09;5.93;;;4.22;;
17854;SDS011;9053;53.358;6.382;2022-08-25T09:25:04;6.18;;;4.32;;
17854;SDS011;9053;53.358;6.382;2022-08-25T09:27:57;5.32;;;4.03;;
17854;SDS011;9053;53.358;6.382;2022-08-25T09:30:40;4.15;;;3.30;;
17854;SDS011;9053;53.358;6.382;2022-08-25T09:33:17;5.35;;;4.13;;
17854;SDS011;9053;53.358;6.382;2022-08-25T09:35:50;5.15;;;4.45;;
17854;SDS011;9053;53.358;6.382;2022-08-25T09:38:23;4.80;;;4.03;;
17854;SDS011;9053;53.358;6.382;2022-08-25T09:40:55;4.75;;;3.83;;
17854;SDS011;9053;53.358;6.382;2022-08-25T09:43:31;4.00;;;3.60;;
17854;SDS011;9053;53.358;6.382;2022-08-25T09:46:07;5.13;;;3.72;;
17854;SDS011;9053;53.358;6.382;2022-08-25T09:48:44;6.85;;;4.05;;
17854;SDS011;9053;53.358;6.382;2022-08-25T09:51:23;5.35;;;4.13;;
17854;SDS011;9053;53.358;6.382;2022-08-25T09:53:56;3.75;;;3.22;;
17854;SDS011;9053;53.358;6.382;2022-08-25T09:56:36;6.75;;;4.22;;
17854;SDS011;9053;53.358;6.382;2022-08-25T09:59:19;4.28;;;3.55;;
17854;SDS011;9053;53.358;6.382;2022-08-25T10:02:03;7.10;;;3.55;;
17854;SDS011;9053;53.358;6.382;2022-08-25T10:04:51;6.80;;;4.00;;
17854;SDS011;9053;53.358;6.382;2022-08-25T10:07:22;5.85;;;3.40;;
17854;SDS011;9053;53.358;6.382;2022-08-25T10:09:56;6.43;;;3.55;;
17854;SDS011;9053;53.358;6.382;2022-08-25T10:12:28;5.80;;;3.60;;
17854;SDS011;9053;53.358;6.382;2022-08-25T10:15:14;4.68;;;3.15;;
17854;SDS011;9053;53.358;6.382;2022-08-25T10:17:58;5.20;;;2.80;;
17854;SDS011;9053;53.358;6.382;2022-08-25T10:21:02;5.05;;;3.72;;
17854;SDS011;9053;53.358;6.382;2022-08-25T10:23:35;3.80;;;2.80;;
17854;SDS011;9053;53.358;6.382;2022-08-25T10:26:13;4.00;;;3.20;;
17854;SDS011;9053;53.358;6.382;2022-08-25T10:28:52;4.47;;;3.30;;
17854;SDS011;9053;53.358;6.382;2022-08-25T10:31:35;5.03;;;2.88;;
17854;SDS011;9053;53.358;6.382;2022-08-25T10:34:20;7.95;;;3.40;;
17854;SDS011;9053;53.358;6.382;2022-08-25T10:36:56;4.97;;;3.83;;
17854;SDS011;9053;53.358;6.382;2022-08-25T10:39:37;7.70;;;3.40;;
17854;SDS011;9053;53.358;6.382;2022-08-25T10:42:14;7.28;;;3.47;;
17854;SDS011;9053;53.358;6.382;2022-08-25T10:48:15;4.38;;;3.47;;
17854;SDS011;9053;53.358;6.382;2022-08-25T10:50:55;4.82;;;3.50;;
17854;SDS011;9053;53.358;6.382;2022-08-25T10:53:33;4.22;;;3.15;;
17854;SDS011;9053;53.358;6.382;2022-08-25T10:56:15;3.90;;;3.60;;
17854;SDS011;9053;53.358;6.382;2022-08-25T10:59:01;5.97;;;3.40;;
17854;SDS011;9053;53.358;6.382;2022-08-25T11:01:47;4.13;;;3.40;;
17854;SDS011;9053;53.358;6.382;2022-08-25T11:04:40;6.00;;;3.65;;
17854;SDS011;9053;53.358;6.382;2022-08-25T11:07:18;7.97;;;3.90;;
17854;SDS011;9053;53.358;6.382;2022-08-25T11:09:53;6.82;;;3.08;;
17854;SDS011;9053;53.358;6.382;2022-08-25T11:12:29;4.97;;;3.10;;
17854;SDS011;9053;53.358;6.382;2022-08-25T11:15:01;3.80;;;3.40;;
17854;SDS011;9053;53.358;6.382;2022-08-25T11:17:38;3.75;;;3.00;;
17854;SDS011;9053;53.358;6.382;2022-08-25T11:20:16;4.75;;;3.38;;
17854;SDS011;9053;53.358;6.382;2022-08-25T11:22:56;5.43;;;4.03;;
17854;SDS011;9053;53.358;6.382;2022-08-25T11:25:37;5.38;;;3.47;;
17854;SDS011;9053;53.358;6.382;2022-08-25T11:28:11;5.68;;;3.60;;
17854;SDS011;9053;53.358;6.382;2022-08-25T11:30:44;6.15;;;3.55;;
17854;SDS011;9053;53.358;6.382;2022-08-25T11:33:15;3.95;;;3.22;;
17854;SDS011;9053;53.358;6.382;2022-08-25T11:35:48;4.60;;;3.22;;
17854;SDS011;9053;53.358;6.382;2022-08-25T11:38:27;4.05;;;2.75;;
17854;SDS011;9053;53.358;6.382;2022-08-25T11:41:18;3.85;;;2.67;;
17854;SDS011;9053;53.358;6.382;2022-08-25T11:44:12;4.10;;;2.83;;
17854;SDS011;9053;53.358;6.382;2022-08-25T11:46:58;3.85;;;3.45;;
17854;SDS011;9053;53.358;6.382;2022-08-25T11:49:51;4.00;;;2.80;;
17854;SDS011;9053;53.358;6.382;2022-08-25T11:55:19;3.72;;;2.83;;
17854;SDS011;9053;53.358;6.382;2022-08-25T12:00:45;4.55;;;3.10;;
17854;SDS011;9053;53.358;6.382;2022-08-25T12:06:22;3.35;;;2.80;;
17854;SDS011;9053;53.358;6.382;2022-08-25T12:11:53;3.90;;;3.03;;
17854;SDS011;9053;53.358;6.382;2022-08-25T12:14:36;2.75;;;2.55;;
17854;SDS011;9053;53.358;6.382;2022-08-25T12:17:18;5.93;;;3.63;;
17854;SDS011;9053;53.358;6.382;2022-08-25T12:19:52;6.68;;;3.38;;
17854;SDS011;9053;53.358;6.382;2022-08-25T12:25:25;8.13;;;3.42;;
17854;SDS011;9053;53.358;6.382;2022-08-25T12:28:06;3.83;;;3.10;;
17854;SDS011;9053;53.358;6.382;2022-08-25T12:31:02;3.95;;;3.15;;
17854;SDS011;9053;53.358;6.382;2022-08-25T12:33:40;3.92;;;3.20;;
17854;SDS011;9053;53.358;6.382;2022-08-25T12:36:25;7.32;;;3.55;;
17854;SDS011;9053;53.358;6.382;2022-08-25T12:39:13;5.45;;;3.70;;
17854;SDS011;9053;53.358;6.382;2022-08-25T12:41:54;3.72;;;3.38;;
17854;SDS011;9053;53.358;6.382;2022-08-25T12:44:40;5.90;;;3.45;;
17854;SDS011;9053;53.358;6.382;2022-08-25T12:47:25;7.00;;;3.80;;
17854;SDS011;9053;53.358;6.382;2022-08-25T12:53:08;6.60;;;3.63;;
17854;SDS011;9053;53.358;6.382;2022-08-25T12:55:41;11.10;;;4.50;;
17854;SDS011;9053;53.358;6.382;2022-08-25T12:58:15;3.25;;;2.67;;
17854;SDS011;9053;53.358;6.382;2022-08-25T13:00:53;3.85;;;3.50;;
17854;SDS011;9053;53.358;6.382;2022-08-25T13:03:57;5.57;;;3.63;;
17854;SDS011;9053;53.358;6.382;2022-08-25T13:06:42;9.82;;;4.30;;
17854;SDS011;9053;53.358;6.382;2022-08-25T13:09:30;17.38;;;6.80;;
17854;SDS011;9053;53.358;6.382;2022-08-25T13:12:25;3.50;;;3.20;;
17854;SDS011;9053;53.358;6.382;2022-08-25T13:14:59;6.70;;;3.53;;
17854;SDS011;9053;53.358;6.382;2022-08-25T13:17:33;9.02;;;3.65;;
17854;SDS011;9053;53.358;6.382;2022-08-25T13:20:11;3.92;;;3.38;;
17854;SDS011;9053;53.358;6.382;2022-08-25T13:22:46;7.32;;;3.90;;
17854;SDS011;9053;53.358;6.382;2022-08-25T13:25:23;3.33;;;3.03;;
17854;SDS011;9053;53.358;6.382;2022-08-25T13:27:59;3.25;;;2.95;;
17854;SDS011;9053;53.358;6.382;2022-08-25T13:30:32;4.30;;;2.80;;
17854;SDS011;9053;53.358;6.382;2022-08-25T13:33:17;7.10;;;3.15;;
17854;SDS011;9053;53.358;6.382;2022-08-25T13:35:51;3.20;;;2.90;;
17854;SDS011;9053;53.358;6.382;2022-08-25T13:38:43;3.85;;;2.78;;
17854;SDS011;9053;53.358;6.382;2022-08-25T13:41:16;4.70;;;3.75;;
17854;SDS011;9053;53.358;6.382;2022-08-25T13:43:54;3.80;;;3.50;;
17854;SDS011;9053;53.358;6.382;2022-08-25T13:46:28;5.45;;;3.10;;
17854;SDS011;9053;53.358;6.382;2022-08-25T13:49:04;5.07;;;3.65;;
17854;SDS011;9053;53.358;6.382;2022-08-25T13:51:36;3.40;;;3.10;;
17854;SDS011;9053;53.358;6.382;2022-08-25T13:54:19;3.83;;;3.10;;
17854;SDS011;9053;53.358;6.382;2022-08-25T13:56:53;3.70;;;3.08;;
17854;SDS011;9053;53.358;6.382;2022-08-25T13:59:35;3.10;;;2.50;;
17854;SDS011;9053;53.358;6.382;2022-08-25T14:02:08;3.63;;;3.20;;
17854;SDS011;9053;53.358;6.382;2022-08-25T14:04:47;4.57;;;2.90;;
17854;SDS011;9053;53.358;6.382;2022-08-25T14:07:26;3.10;;;2.85;;
17854;SDS011;9053;53.358;6.382;2022-08-25T14:10:00;3.47;;;3.17;;
17854;SDS011;9053;53.358;6.382;2022-08-25T14:12:37;3.35;;;2.90;;
17854;SDS011;9053;53.358;6.382;2022-08-25T14:15:11;4.05;;;3.20;;
17854;SDS011;9053;53.358;6.382;2022-08-25T14:18:00;5.65;;;3.20;;
17854;SDS011;9053;53.358;6.382;2022-08-25T14:20:35;4.05;;;2.85;;
17854;SDS011;9053;53.358;6.382;2022-08-25T14:23:07;5.57;;;3.50;;
17854;SDS011;9053;53.358;6.382;2022-08-25T14:25:44;4.85;;;3.00;;
17854;SDS011;9053;53.358;6.382;2022-08-25T14:28:15;3.78;;;3.42;;
17854;SDS011;9053;53.358;6.382;2022-08-25T14:30:49;3.70;;;3.40;;
17854;SDS011;9053;53.358;6.382;2022-08-25T14:33:21;3.60;;;3.08;;
17854;SDS011;9053;53.358;6.382;2022-08-25T14:35:58;3.88;;;3.20;;
17854;SDS011;9053;53.358;6.382;2022-08-25T14:38:31;4.25;;;3.03;;
17854;SDS011;9053;53.358;6.382;2022-08-25T14:41:04;3.40;;;3.05;;
17854;SDS011;9053;53.358;6.382;2022-08-25T14:43:54;6.05;;;2.97;;
17854;SDS011;9053;53.358;6.382;2022-08-25T14:46:24;3.50;;;2.70;;
17854;SDS011;9053;53.358;6.382;2022-08-25T14:48:57;4.18;;;3.08;;
17854;SDS011;9053;53.358;6.382;2022-08-25T14:51:31;3.83;;;2.92;;
17854;SDS011;9053;53.358;6.382;2022-08-25T14:54:03;3.60;;;2.70;;
17854;SDS011;9053;53.358;6.382;2022-08-25T14:56:36;2.97;;;2.60;;
17854;SDS011;9053;53.358;6.382;2022-08-25T14:59:08;4.13;;;3.40;;
17854;SDS011;9053;53.358;6.382;2022-08-25T15:01:38;3.45;;;3.08;;
17854;SDS011;9053;53.358;6.382;2022-08-25T15:04:09;2.85;;;2.65;;
17854;SDS011;9053;53.358;6.382;2022-08-25T15:06:45;3.85;;;3.00;;
17854;SDS011;9053;53.358;6.382;2022-08-25T15:09:17;4.38;;;2.95;;
17854;SDS011;9053;53.358;6.382;2022-08-25T15:11:48;3.70;;;2.90;;
17854;SDS011;9053;53.358;6.382;2022-08-25T15:14:21;3.38;;;2.20;;
17854;SDS011;9053;53.358;6.382;2022-08-25T15:16:58;4.28;;;2.90;;
17854;SDS011;9053;53.358;6.382;2022-08-25T15:19:32;3.20;;;2.90;;
17854;SDS011;9053;53.358;6.382;2022-08-25T15:22:05;3.17;;;2.88;;
17854;SDS011;9053;53.358;6.382;2022-08-25T15:24:36;3.10;;;2.80;;
17854;SDS011;9053;53.358;6.382;2022-08-25T15:27:06;4.47;;;3.05;;
17854;SDS011;9053;53.358;6.382;2022-08-25T15:29:36;3.20;;;2.90;;
17854;SDS011;9053;53.358;6.382;2022-08-25T15:32:07;3.90;;;2.95;;
17854;SDS011;9053;53.358;6.382;2022-08-25T15:34:37;2.97;;;2.70;;
17854;SDS011;9053;53.358;6.382;2022-08-25T15:37:11;3.30;;;2.92;;
17854;SDS011;9053;53.358;6.382;2022-08-25T15:39:43;3.25;;;2.95;;
17854;SDS011;9053;53.358;6.382;2022-08-25T15:42:14;4.32;;;3.35;;
17854;SDS011;9053;53.358;6.382;2022-08-25T15:44:46;3.70;;;2.88;;
17854;SDS011;9053;53.358;6.382;2022-08-25T15:47:19;3.30;;;3.00;;
17854;SDS011;9053;53.358;6.382;2022-08-25T15:49:49;4.78;;;3.28;;
17854;SDS011;9053;53.358;6.382;2022-08-25T15:52:36;3.92;;;3.42;;
17854;SDS011;9053;53.358;6.382;2022-08-25T15:55:14;5.25;;;3.20;;
17854;SDS011;9053;53.358;6.382;2022-08-25T15:57:46;3.20;;;2.90;;
17854;SDS011;9053;53.358;6.382;2022-08-25T16:00:17;3.00;;;2.75;;
17854;SDS011;9053;53.358;6.382;2022-08-25T16:02:47;3.60;;;2.85;;
17854;SDS011;9053;53.358;6.382;2022-08-25T16:05:18;4.07;;;3.00;;